createdAt,value
2019-03-24T00:02:12.426Z,66.15
2019-03-24T00:04:41.262Z,63.10
2019-03-24T00:07:10.096Z,65.57
2019-03-24T00:09:39.898Z,55.90
2019-03-24T00:12:08.721Z,62.27
2019-03-24T00:14:37.576Z,61.28
2019-03-24T00:17:06.340Z,64.35
2019-03-24T00:19:35.193Z,59.50
2019-03-24T00:22:04.470Z,63.50
2019-03-24T00:24:33.374Z,61.00
2019-03-24T00:27:02.198Z,66.97
2019-03-24T00:29:31.050Z,64.45
2019-03-24T00:32:00.031Z,63.92
2019-03-24T00:34:28.830Z,67.87
2019-03-24T00:36:57.702Z,65.55
2019-03-24T00:39:26.964Z,70.85
2019-03-24T00:41:55.694Z,56.77
2019-03-24T00:44:24.712Z,67.55
2019-03-24T00:46:53.498Z,64.00
2019-03-24T00:49:22.389Z,62.10
2019-03-24T00:51:51.153Z,66.70
2019-03-24T00:54:19.981Z,71.28
2019-03-24T00:56:48.749Z,64.17
2019-03-24T00:59:17.586Z,71.00
2019-03-24T01:01:46.446Z,80.70
2019-03-24T01:04:15.437Z,58.45
2019-03-24T01:06:44.192Z,71.67
2019-03-24T01:09:13.023Z,72.10
2019-03-24T01:11:41.840Z,63.68
2019-03-24T01:14:10.776Z,69.07
2019-03-24T01:16:39.855Z,59.20
2019-03-24T01:19:08.633Z,68.20
2019-03-24T01:21:37.479Z,70.72
2019-03-24T01:24:06.245Z,66.80
2019-03-24T01:26:35.032Z,66.57
2019-03-24T01:29:03.820Z,72.70
2019-03-24T01:31:32.582Z,70.42
2019-03-24T01:34:01.410Z,81.72
2019-03-24T01:36:30.393Z,68.33
2019-03-24T01:38:59.212Z,75.20
2019-03-24T01:41:28.522Z,78.55
2019-03-24T01:43:57.268Z,63.15
2019-03-24T01:46:26.416Z,67.72
2019-03-24T01:48:55.311Z,71.50
2019-03-24T01:51:24.204Z,72.00
2019-03-24T01:53:52.914Z,72.27
2019-03-24T01:56:21.700Z,74.58
2019-03-24T01:58:50.454Z,67.12
2019-03-24T02:01:19.192Z,67.82
2019-03-24T02:03:48.057Z,68.92
2019-03-24T02:06:16.834Z,67.87
2019-03-24T02:08:45.627Z,79.75
2019-03-24T02:11:14.423Z,67.55
2019-03-24T02:13:43.319Z,74.03
2019-03-24T02:16:12.119Z,75.90
2019-03-24T02:18:40.898Z,71.95
2019-03-24T02:21:10.825Z,68.55
2019-03-24T02:23:39.731Z,76.90
2019-03-24T02:26:08.550Z,77.50
2019-03-24T02:28:37.375Z,79.72
2019-03-24T02:31:06.150Z,69.70
2019-03-24T02:33:36.076Z,73.87
2019-03-24T02:36:04.921Z,73.80
2019-03-24T02:38:34.031Z,66.12
2019-03-24T02:41:03.145Z,75.97
2019-03-24T02:43:31.942Z,69.15
2019-03-24T02:46:01.333Z,79.82
2019-03-24T02:48:30.237Z,82.85
2019-03-24T02:50:58.963Z,72.25
2019-03-24T02:53:27.802Z,87.40
2019-03-24T02:55:56.542Z,81.17
2019-03-24T02:58:25.301Z,70.28
2019-03-24T03:00:55.177Z,64.80
2019-03-24T03:03:24.039Z,83.67
2019-03-24T03:05:52.783Z,80.15
2019-03-24T03:08:21.844Z,91.22
2019-03-24T03:10:50.674Z,76.07
2019-03-24T03:13:20.395Z,75.45
2019-03-24T03:15:51.926Z,72.35
2019-03-24T03:18:20.847Z,87.72
2019-03-24T03:20:49.893Z,79.30
2019-03-24T03:23:18.795Z,77.78
2019-03-24T03:25:47.621Z,72.25
2019-03-24T03:28:16.610Z,84.85
2019-03-24T03:30:45.475Z,76.02
2019-03-24T03:33:14.275Z,82.02
2019-03-24T03:35:43.294Z,88.07
2019-03-24T03:38:12.150Z,78.07
2019-03-24T03:40:41.082Z,87.50
2019-03-24T03:43:09.886Z,82.72
2019-03-24T03:45:39.418Z,87.00
2019-03-24T03:48:08.559Z,81.22
2019-03-24T03:50:37.419Z,86.80
2019-03-24T03:53:06.227Z,81.20
2019-03-24T03:55:35.064Z,87.35
2019-03-24T03:58:03.919Z,82.40
2019-03-24T04:00:34.537Z,82.05
2019-03-24T04:03:04.263Z,89.28
2019-03-24T04:05:33.117Z,83.58
2019-03-24T04:08:02.187Z,83.25
2019-03-24T04:10:31.000Z,86.28
2019-03-24T04:12:59.717Z,87.97
2019-03-24T04:15:28.611Z,82.27
2019-03-24T04:17:57.421Z,88.35
2019-03-24T04:20:26.274Z,83.37
2019-03-24T04:22:55.086Z,94.52
2019-03-24T04:25:23.974Z,85.42
2019-03-24T04:27:52.828Z,81.92
2019-03-24T04:30:21.696Z,91.50
2019-03-24T04:32:50.600Z,98.45
2019-03-24T04:35:19.363Z,93.47
2019-03-24T04:37:48.168Z,85.57
2019-03-24T04:40:16.931Z,90.47
2019-03-24T04:42:46.155Z,90.90
2019-03-24T04:45:14.916Z,92.72
2019-03-24T04:47:43.845Z,87.25
2019-03-24T04:50:14.738Z,96.35
2019-03-24T04:52:43.551Z,89.20
2019-03-24T04:55:12.608Z,90.45
2019-03-24T04:57:41.415Z,91.63
2019-03-24T05:00:11.556Z,107.10
2019-03-24T05:02:40.436Z,95.53
2019-03-24T05:05:10.047Z,99.30
2019-03-24T05:07:39.881Z,91.37
2019-03-24T05:10:26.467Z,102.80
2019-03-24T05:12:55.205Z,97.78
2019-03-24T05:15:24.009Z,84.22
2019-03-24T05:17:52.834Z,97.33
2019-03-24T05:20:21.595Z,106.32
2019-03-24T05:22:50.968Z,103.32
2019-03-24T05:25:19.735Z,108.63
2019-03-24T05:27:49.898Z,98.37
2019-03-24T05:30:18.624Z,99.97
2019-03-24T05:32:47.430Z,104.43
2019-03-24T05:35:16.210Z,109.95
2019-03-24T05:37:44.961Z,99.85
2019-03-24T05:40:13.797Z,101.80
2019-03-24T05:42:42.642Z,101.18
2019-03-24T05:45:11.475Z,105.17
2019-03-24T05:47:40.311Z,101.15
2019-03-24T05:50:09.846Z,108.97
2019-03-24T05:52:38.579Z,96.15
2019-03-24T05:55:07.536Z,97.05
2019-03-24T05:57:37.465Z,96.80
2019-03-24T06:00:06.691Z,89.40
2019-03-24T06:02:35.542Z,92.78
2019-03-24T06:05:05.422Z,85.45
2019-03-24T06:07:34.327Z,87.22
2019-03-24T06:10:03.740Z,92.92
2019-03-24T06:12:32.768Z,91.75
2019-03-24T06:15:01.932Z,73.02
2019-03-24T06:17:31.703Z,88.90
2019-03-24T06:20:00.457Z,88.12
2019-03-24T06:22:29.287Z,81.00
2019-03-24T06:24:58.160Z,74.87
2019-03-24T06:27:27.239Z,75.08
2019-03-24T06:29:56.208Z,77.78
2019-03-24T06:32:25.064Z,73.97
2019-03-24T06:34:55.113Z,70.03
2019-03-24T06:37:23.893Z,75.80
2019-03-24T06:39:52.716Z,78.28
2019-03-24T06:42:21.682Z,76.05
2019-03-24T06:44:50.817Z,78.92
2019-03-24T06:47:19.747Z,75.65
2019-03-24T06:49:49.384Z,69.05
2019-03-24T06:52:18.246Z,65.42
2019-03-24T06:54:47.467Z,67.97
2019-03-24T06:57:17.030Z,65.97
2019-03-24T06:59:46.103Z,69.05
2019-03-24T07:02:15.060Z,83.37
2019-03-24T07:04:44.076Z,67.17
2019-03-24T07:07:13.055Z,66.87
2019-03-24T07:09:41.971Z,65.00
2019-03-24T07:12:11.071Z,70.95
2019-03-24T07:14:58.424Z,68.40
2019-03-24T07:17:27.671Z,63.40
2019-03-24T07:19:56.897Z,58.40
2019-03-24T07:22:25.734Z,58.00
2019-03-24T07:24:54.638Z,61.10
2019-03-24T07:27:23.716Z,62.20
2019-03-24T07:29:52.735Z,63.05
2019-03-24T07:32:21.745Z,63.15
2019-03-24T07:34:50.748Z,59.55
2019-03-24T07:37:19.680Z,60.12
2019-03-24T07:39:48.576Z,65.17
2019-03-24T07:42:17.362Z,62.30
2019-03-24T07:44:46.420Z,57.88
2019-03-24T07:47:15.634Z,64.75
2019-03-24T07:49:44.634Z,56.18
2019-03-24T07:52:13.881Z,58.92
2019-03-24T07:54:42.751Z,55.80
2019-03-24T07:57:11.673Z,60.80
2019-03-24T07:59:40.673Z,54.75
2019-03-24T08:02:09.575Z,55.55
2019-03-24T08:04:38.489Z,60.15
2019-03-24T08:07:07.513Z,55.80
2019-03-24T08:09:37.323Z,52.40
2019-03-24T08:12:06.562Z,58.33
2019-03-24T08:14:35.888Z,59.93
2019-03-24T08:17:05.273Z,53.50
2019-03-24T08:19:34.413Z,62.00
2019-03-24T08:22:03.788Z,56.28
2019-03-24T08:24:32.664Z,58.45
2019-03-24T08:27:02.170Z,54.30
2019-03-24T08:29:31.294Z,51.80
2019-03-24T08:32:00.127Z,54.15
2019-03-24T08:34:28.880Z,50.03
2019-03-24T08:36:57.836Z,52.93
2019-03-24T08:39:26.989Z,54.65
2019-03-24T08:41:57.901Z,54.42
2019-03-24T08:44:27.059Z,51.48
2019-03-24T08:46:56.037Z,52.05
2019-03-24T08:49:24.911Z,48.87
2019-03-24T08:51:53.871Z,56.85
2019-03-24T08:54:23.509Z,50.60
2019-03-24T08:56:52.432Z,53.63
2019-03-24T08:59:21.292Z,52.60
2019-03-24T09:01:50.603Z,50.63
2019-03-24T09:04:22.095Z,54.77
2019-03-24T09:06:51.264Z,54.65
2019-03-24T09:09:20.235Z,51.37
2019-03-24T09:11:49.335Z,49.73
2019-03-24T09:14:18.269Z,53.50
2019-03-24T09:16:47.556Z,57.25
2019-03-24T09:19:16.417Z,50.48
2019-03-24T09:21:45.280Z,43.85
2019-03-24T09:24:15.017Z,51.60
2019-03-24T09:26:43.930Z,50.08
2019-03-24T09:29:14.104Z,49.83
2019-03-24T09:31:43.115Z,50.63
2019-03-24T09:34:12.117Z,44.75
2019-03-24T09:36:41.210Z,47.95
2019-03-24T09:39:10.751Z,48.75
2019-03-24T09:41:40.539Z,52.20
2019-03-24T09:44:10.664Z,48.13
2019-03-24T09:46:39.720Z,47.97
2019-03-24T09:49:08.752Z,49.18
2019-03-24T09:51:37.927Z,45.25
2019-03-24T09:54:06.760Z,45.23
2019-03-24T09:56:36.925Z,52.83
2019-03-24T09:59:06.489Z,49.83
2019-03-24T10:01:37.944Z,52.13
2019-03-24T10:04:18.829Z,46.60
2019-03-24T10:06:50.151Z,49.43
2019-03-24T10:09:22.611Z,44.23
2019-03-24T10:11:55.578Z,42.67
2019-03-24T10:14:25.173Z,43.93
2019-03-24T10:16:55.714Z,42.77
2019-03-24T10:19:24.939Z,44.53
2019-03-24T10:21:55.084Z,49.47
2019-03-24T10:24:25.416Z,46.33
2019-03-24T10:27:01.734Z,48.23
2019-03-24T10:29:38.846Z,45.70
2019-03-24T10:32:09.269Z,44.57
2019-03-24T10:34:38.500Z,42.20
2019-03-24T10:37:09.688Z,46.17
2019-03-24T10:39:38.787Z,43.83
2019-03-24T10:42:09.019Z,44.40
2019-03-24T10:44:42.552Z,47.87
2019-03-24T10:47:11.737Z,42.70
2019-03-24T10:49:42.942Z,48.93
2019-03-24T10:52:12.482Z,268.53
2019-03-24T10:54:41.869Z,44.97
2019-03-24T10:57:11.148Z,89.47
2019-03-24T10:59:41.226Z,43.47
2019-03-24T11:02:10.372Z,41.87
2019-03-24T11:04:39.982Z,46.53
2019-03-24T11:07:08.955Z,49.13
2019-03-24T11:09:37.852Z,39.53
2019-03-24T11:12:06.730Z,39.73
2019-03-24T11:14:37.803Z,45.07
2019-03-24T11:17:08.545Z,43.93
2019-03-24T11:19:38.753Z,38.00
2019-03-24T11:22:07.630Z,46.23
2019-03-24T11:24:36.793Z,41.33
2019-03-24T11:27:05.923Z,42.30
2019-03-24T11:29:35.899Z,38.37
2019-03-24T11:32:05.167Z,38.77
2019-03-24T11:34:34.215Z,40.63
2019-03-24T11:37:03.492Z,41.10
2019-03-24T11:39:32.586Z,41.87
2019-03-24T11:42:01.614Z,43.73
2019-03-24T11:44:30.596Z,36.50
2019-03-24T11:46:59.656Z,41.83
2019-03-24T11:49:28.682Z,37.60
2019-03-24T11:51:57.844Z,41.27
2019-03-24T11:54:26.974Z,38.37
2019-03-24T11:56:56.412Z,39.03
2019-03-24T11:59:25.594Z,36.37
2019-03-24T12:01:54.557Z,37.10
2019-03-24T12:04:23.719Z,40.83
2019-03-24T12:06:52.723Z,40.93
2019-03-24T12:09:22.062Z,36.63
2019-03-24T12:11:52.037Z,38.80
2019-03-24T12:14:21.542Z,32.07
2019-03-24T12:16:50.767Z,36.30
2019-03-24T12:19:20.084Z,40.43
2019-03-24T12:21:49.149Z,42.30
2019-03-24T12:24:18.346Z,37.90
2019-03-24T12:26:47.546Z,37.93
2019-03-24T12:29:16.859Z,36.20
2019-03-24T12:31:45.932Z,35.03
2019-03-24T12:34:15.101Z,35.00
2019-03-24T12:36:44.189Z,37.53
2019-03-24T12:39:13.828Z,32.60
2019-03-24T12:41:42.755Z,33.40
2019-03-24T12:44:11.950Z,30.77
2019-03-24T12:46:41.291Z,32.10
2019-03-24T12:49:17.116Z,33.03
2019-03-24T12:51:46.207Z,31.83
2019-03-24T12:54:15.991Z,30.73
2019-03-24T12:56:45.115Z,39.47
2019-03-24T12:59:14.518Z,37.87
2019-03-24T13:01:43.524Z,35.03
2019-03-24T13:04:12.586Z,31.40
2019-03-24T13:06:41.466Z,35.00
2019-03-24T13:09:11.386Z,36.27
2019-03-24T13:11:40.404Z,36.63
2019-03-24T13:14:09.421Z,35.43
2019-03-24T13:16:38.438Z,37.63
2019-03-24T13:19:07.369Z,37.27
2019-03-24T13:21:36.334Z,37.93
2019-03-24T13:24:05.427Z,30.83
2019-03-24T13:26:34.484Z,35.53
2019-03-24T13:29:04.707Z,31.33
2019-03-24T13:31:33.706Z,35.60
2019-03-24T13:34:03.111Z,31.80
2019-03-24T13:36:32.058Z,36.13
2019-03-24T13:39:01.151Z,30.37
2019-03-24T13:41:30.425Z,33.33
2019-03-24T13:43:59.375Z,34.87
2019-03-24T13:46:28.319Z,34.20
2019-03-24T13:48:57.508Z,36.80
2019-03-24T13:51:26.375Z,32.70
2019-03-24T13:53:55.335Z,29.30
2019-03-24T13:56:24.577Z,32.93
2019-03-24T13:58:53.663Z,37.00
2019-03-24T14:01:22.562Z,33.77
2019-03-24T14:03:51.625Z,35.73
2019-03-24T14:06:20.586Z,38.33
2019-03-24T14:08:49.702Z,36.10
2019-03-24T14:11:18.718Z,31.73
2019-03-24T14:13:47.759Z,37.90
2019-03-24T14:16:16.809Z,33.93
2019-03-24T14:18:45.726Z,35.60
2019-03-24T14:21:14.786Z,35.63
2019-03-24T14:23:43.850Z,33.70
2019-03-24T14:26:13.867Z,33.10
2019-03-24T14:28:43.519Z,28.17
2019-03-24T14:31:12.588Z,26.67
2019-03-24T14:33:43.118Z,30.43
2019-03-24T14:36:12.123Z,25.80
2019-03-24T14:38:41.097Z,25.47
2019-03-24T14:41:10.168Z,26.97
2019-03-24T14:43:40.042Z,27.57
2019-03-24T14:46:09.057Z,27.53
2019-03-24T14:48:37.982Z,27.00
2019-03-24T14:51:07.534Z,31.37
2019-03-24T14:53:36.869Z,26.07
2019-03-24T14:56:05.898Z,26.83
2019-03-24T14:58:34.958Z,24.80
2019-03-24T15:01:03.969Z,24.33
2019-03-24T15:03:32.918Z,27.40
2019-03-24T15:06:01.984Z,28.77
2019-03-24T15:08:30.960Z,26.60
2019-03-24T15:10:59.965Z,26.27
2019-03-24T15:13:28.839Z,26.83
2019-03-24T15:15:57.823Z,29.70
2019-03-24T15:18:27.355Z,27.70
2019-03-24T15:21:05.150Z,28.50
2019-03-24T15:23:27.008Z,26.20
2019-03-24T15:25:56.004Z,25.80
2019-03-24T15:28:25.136Z,34.30
2019-03-24T15:30:54.904Z,30.30
2019-03-24T15:33:23.964Z,26.57
2019-03-24T15:35:53.041Z,29.83
2019-03-24T15:38:22.158Z,27.43
2019-03-24T15:40:51.086Z,27.50
2019-03-24T15:43:19.926Z,28.60
2019-03-24T15:45:48.851Z,25.13
2019-03-24T15:48:18.556Z,26.20
2019-03-24T15:50:47.694Z,23.70
2019-03-24T15:53:16.632Z,21.27
2019-03-24T15:55:45.576Z,18.33
2019-03-24T15:58:14.560Z,20.20
2019-03-24T16:00:48.237Z,19.33
2019-03-24T16:03:17.560Z,20.10
2019-03-24T16:05:46.636Z,23.10
2019-03-24T16:08:15.576Z,21.67
2019-03-24T16:10:44.506Z,21.73
2019-03-24T16:13:13.399Z,19.37
2019-03-24T16:15:42.334Z,18.90
2019-03-24T16:18:11.320Z,21.43
2019-03-24T16:20:40.380Z,19.70
2019-03-24T16:23:09.460Z,21.30
2019-03-24T16:25:38.524Z,18.77
2019-03-24T16:28:07.698Z,20.67
2019-03-24T16:30:36.734Z,20.10
2019-03-24T16:33:06.120Z,21.13
2019-03-24T16:35:35.128Z,21.33
2019-03-24T16:38:04.209Z,25.57
2019-03-24T16:40:33.178Z,20.83
2019-03-24T16:43:02.099Z,22.80
2019-03-24T16:45:31.161Z,21.97
2019-03-24T16:48:00.117Z,21.10
2019-03-24T16:50:28.961Z,24.33
2019-03-24T16:52:57.937Z,21.57
2019-03-24T16:55:26.910Z,22.83
2019-03-24T16:57:55.938Z,22.20
2019-03-24T17:00:24.986Z,20.00
2019-03-24T17:02:54.023Z,19.77
2019-03-24T17:05:23.071Z,20.43
2019-03-24T17:07:52.118Z,18.83
2019-03-24T17:10:21.230Z,21.27
2019-03-24T17:12:51.312Z,20.70
2019-03-24T17:15:20.366Z,18.30
2019-03-24T17:17:49.413Z,19.77
2019-03-24T17:20:18.483Z,20.50
2019-03-24T17:22:47.488Z,19.80
2019-03-24T17:25:16.518Z,18.50
2019-03-24T17:27:45.584Z,21.37
2019-03-24T17:30:15.178Z,19.60
2019-03-24T17:32:44.136Z,25.17
2019-03-24T17:35:13.257Z,16.80
2019-03-24T17:37:42.169Z,17.87
2019-03-24T17:40:12.602Z,14.70
2019-03-24T17:42:41.848Z,16.53
2019-03-24T17:45:11.469Z,18.27
2019-03-24T17:47:40.444Z,16.20
2019-03-24T17:50:11.988Z,14.37
2019-03-24T17:52:40.607Z,14.38
2019-03-24T17:55:09.837Z,16.40
2019-03-24T17:57:38.774Z,19.97
2019-03-24T18:00:11.586Z,19.10
2019-03-24T18:02:40.683Z,17.17
2019-03-24T18:05:10.031Z,21.70
2019-03-24T18:07:39.115Z,20.27
2019-03-24T18:10:10.449Z,17.30
2019-03-24T18:12:39.609Z,17.80
2019-03-24T18:15:09.171Z,16.82
2019-03-24T18:17:38.383Z,16.60
2019-03-24T18:20:08.546Z,14.90
2019-03-24T18:22:37.841Z,18.55
2019-03-24T18:25:08.839Z,16.93
2019-03-24T18:27:37.911Z,15.25
2019-03-24T18:30:09.040Z,17.23
2019-03-24T18:32:38.583Z,18.17
2019-03-24T18:35:08.656Z,20.10
2019-03-24T18:37:38.090Z,18.37
2019-03-24T18:40:08.966Z,16.50
2019-03-24T18:42:38.511Z,20.95
2019-03-24T18:45:09.171Z,18.17
2019-03-24T18:47:39.447Z,19.42
2019-03-24T18:50:09.501Z,21.12
2019-03-24T18:52:38.644Z,19.67
2019-03-24T18:55:09.182Z,22.40
2019-03-24T18:57:38.223Z,19.82
2019-03-24T19:00:07.736Z,19.37
2019-03-24T19:02:36.956Z,19.17
2019-03-24T19:05:06.638Z,18.35
2019-03-24T19:07:35.703Z,18.23
2019-03-24T19:10:05.594Z,18.42
2019-03-24T19:12:34.911Z,21.10
2019-03-24T19:15:04.419Z,19.52
2019-03-24T19:17:33.642Z,18.55
2019-03-24T19:20:02.699Z,26.33
2019-03-24T19:22:33.733Z,18.95
2019-03-24T19:25:02.833Z,19.25
2019-03-24T19:27:31.927Z,14.35
2019-03-24T19:30:01.035Z,19.52
2019-03-24T19:32:31.135Z,15.65
2019-03-24T19:35:00.419Z,14.47
2019-03-24T19:37:29.791Z,13.22
2019-03-24T19:39:58.993Z,15.03
2019-03-24T19:42:28.177Z,11.43
2019-03-24T19:44:57.367Z,11.57
2019-03-24T19:48:19.604Z,15.32
2019-03-24T19:55:03.172Z,12.10
2019-03-24T19:57:32.222Z,11.53
2019-03-24T20:00:01.369Z,10.88
2019-03-24T20:02:30.484Z,8.83
2019-03-24T20:05:00.366Z,9.78
2019-03-24T20:07:29.616Z,12.18
2019-03-24T20:09:58.867Z,13.08
2019-03-24T20:12:27.971Z,9.85
2019-03-24T20:14:57.198Z,9.78
2019-03-24T20:17:26.403Z,10.08
2019-03-24T20:19:55.693Z,8.48
2019-03-24T20:22:25.219Z,6.97
2019-03-24T20:24:54.200Z,6.17
2019-03-24T20:27:25.888Z,9.28
2019-03-24T20:29:55.879Z,5.55
2019-03-24T20:32:24.976Z,7.42
2019-03-24T20:34:53.894Z,7.78
2019-03-24T20:37:22.929Z,5.33
2019-03-24T20:39:52.020Z,9.23
2019-03-24T20:42:21.311Z,6.67
2019-03-24T20:44:50.382Z,6.85
2019-03-24T20:47:19.439Z,7.30
2019-03-24T20:49:48.846Z,5.15
2019-03-24T20:52:18.011Z,6.42
2019-03-24T20:54:48.878Z,7.30
2019-03-24T20:57:18.147Z,7.25
2019-03-24T20:59:47.462Z,6.65
2019-03-24T21:02:16.494Z,6.17
2019-03-24T21:04:45.634Z,5.50
2019-03-24T21:07:14.824Z,6.45
2019-03-24T21:09:46.454Z,5.05
2019-03-24T21:12:14.800Z,4.95
2019-03-24T21:14:44.036Z,8.18
2019-03-24T21:17:12.969Z,5.62
2019-03-24T21:19:42.029Z,8.28
2019-03-24T21:22:12.404Z,5.53
2019-03-24T21:24:41.521Z,8.40
2019-03-24T21:27:10.464Z,5.03
2019-03-24T21:29:39.438Z,7.12
2019-03-24T21:32:08.729Z,4.78
2019-03-24T21:34:37.856Z,6.25
2019-03-24T21:37:08.889Z,6.33
2019-03-24T21:39:38.843Z,5.65
2019-03-24T21:42:08.049Z,7.15
2019-03-24T21:44:37.022Z,4.33
2019-03-24T21:47:06.009Z,4.58
2019-03-24T21:49:35.134Z,6.03
2019-03-24T21:52:04.271Z,5.42
2019-03-24T21:54:33.270Z,4.65
2019-03-24T21:57:02.203Z,6.75
2019-03-24T21:59:31.136Z,4.00
2019-03-24T22:02:00.100Z,4.78
2019-03-24T22:04:29.062Z,4.08
2019-03-24T22:06:58.295Z,4.50
2019-03-24T22:09:28.161Z,10.40
2019-03-24T22:11:57.063Z,5.08
2019-03-24T22:14:26.215Z,5.05
2019-03-24T22:16:55.348Z,3.40
2019-03-24T22:19:24.365Z,6.22
2019-03-24T22:21:53.201Z,7.40
2019-03-24T22:24:22.190Z,7.00
2019-03-24T22:26:51.219Z,6.95
2019-03-24T22:29:20.273Z,6.45
2019-03-24T22:31:49.537Z,5.58
2019-03-24T22:34:18.461Z,6.80
2019-03-24T22:36:47.330Z,4.45
2019-03-24T22:39:16.613Z,6.25
2019-03-24T22:41:45.522Z,5.62
2019-03-24T22:44:14.940Z,5.05
2019-03-24T22:46:50.281Z,7.15
2019-03-24T22:49:19.120Z,4.95
2019-03-24T22:51:48.885Z,5.58
2019-03-24T22:54:17.911Z,7.17
2019-03-24T22:56:46.737Z,6.72
2019-03-24T22:59:15.995Z,8.00
2019-03-24T23:01:44.988Z,5.35
2019-03-24T23:04:14.513Z,8.35
2019-03-24T23:06:43.525Z,5.78
2019-03-24T23:09:12.465Z,6.12
2019-03-24T23:11:41.455Z,9.15
2019-03-24T23:14:10.458Z,7.20
2019-03-24T23:16:39.499Z,8.93
2019-03-24T23:19:08.633Z,10.23
2019-03-24T23:21:40.897Z,7.45
2019-03-24T23:24:15.588Z,5.83
2019-03-24T23:26:43.240Z,7.70
2019-03-24T23:29:12.892Z,7.65
2019-03-24T23:31:43.864Z,8.03
2019-03-24T23:34:13.646Z,5.95
2019-03-24T23:36:43.970Z,9.38
2019-03-24T23:39:18.397Z,9.83
2019-03-24T23:44:51.543Z,9.63
2019-03-24T23:47:29.363Z,10.82
2019-03-24T23:50:05.495Z,6.58
2019-03-24T23:52:37.992Z,7.30
2019-03-24T23:55:08.368Z,5.35
2019-03-24T23:57:37.375Z,10.10
